createdAt,value
2023-04-11T00:00:27.836Z,66.40
2023-04-11T00:01:29.994Z,60.22
2023-04-11T00:02:34.766Z,74.20
2023-04-11T00:03:38.116Z,71.82
2023-04-11T00:04:41.343Z,62.10
2023-04-11T00:05:43.317Z,75.22
2023-04-11T00:06:47.659Z,83.28
2023-04-11T00:07:50.177Z,91.75
2023-04-11T00:08:53.338Z,83.38
2023-04-11T00:09:55.749Z,72.03
2023-04-11T00:10:58.988Z,85.13
2023-04-11T00:12:01.941Z,86.45
2023-04-11T00:13:04.743Z,75.60
2023-04-11T00:14:08.745Z,99.45
2023-04-11T00:15:12.170Z,100.53
2023-04-11T00:16:14.201Z,82.03
2023-04-11T00:17:18.020Z,77.38
2023-04-11T00:18:19.844Z,81.50
2023-04-11T00:19:23.225Z,99.32
2023-04-11T00:20:25.334Z,101.53
2023-04-11T00:21:28.276Z,65.65
2023-04-11T00:22:33.558Z,60.97
2023-04-11T00:23:36.743Z,110.13
2023-04-11T00:24:38.600Z,75.93
2023-04-11T00:25:41.675Z,113.00
2023-04-11T00:26:44.671Z,93.25
2023-04-11T00:27:47.154Z,64.90
2023-04-11T00:28:49.999Z,86.03
2023-04-11T00:29:52.847Z,93.10
2023-04-11T00:30:55.780Z,100.82
2023-04-11T00:31:57.690Z,68.47
2023-04-11T00:33:00.870Z,83.15
2023-04-11T00:34:02.758Z,115.55
2023-04-11T00:35:08.629Z,131.65
2023-04-11T00:36:12.767Z,52.78
2023-04-11T00:37:15.583Z,93.10
2023-04-11T00:38:18.723Z,102.88
2023-04-11T00:39:22.733Z,98.10
2023-04-11T00:40:24.550Z,88.00
2023-04-11T00:41:27.413Z,72.70
2023-04-11T00:42:29.513Z,83.22
2023-04-11T00:43:32.303Z,66.07
2023-04-11T00:44:34.655Z,82.30
2023-04-11T00:45:37.953Z,82.93
2023-04-11T00:46:43.157Z,85.63
2023-04-11T00:47:47.132Z,67.00
2023-04-11T00:48:49.037Z,74.03
2023-04-11T00:49:51.867Z,76.10
2023-04-11T00:50:54.125Z,75.65
2023-04-11T00:51:57.700Z,63.53
2023-04-11T00:52:59.616Z,64.65
2023-04-11T00:54:03.985Z,72.00
2023-04-11T00:55:07.089Z,75.20
2023-04-11T00:56:11.176Z,76.38
2023-04-11T00:57:13.424Z,68.78
2023-04-11T00:58:17.671Z,71.88
2023-04-11T00:59:19.556Z,78.78
2023-04-11T01:00:22.958Z,80.30
2023-04-11T01:01:25.493Z,80.00
2023-04-11T01:02:28.629Z,84.93
2023-04-11T01:03:31.067Z,86.15
2023-04-11T01:04:37.492Z,63.38
2023-04-11T01:05:39.514Z,78.32
2023-04-11T01:06:42.717Z,75.55
2023-04-11T01:07:47.583Z,75.40
2023-04-11T01:08:53.720Z,89.80
2023-04-11T01:09:57.692Z,89.28
2023-04-11T01:11:00.773Z,85.03
2023-04-11T01:12:03.871Z,93.40
2023-04-11T01:13:06.780Z,84.95
2023-04-11T01:14:08.718Z,81.60
2023-04-11T01:15:11.549Z,109.43
2023-04-11T01:16:15.088Z,85.47
2023-04-11T01:17:21.800Z,85.70
2023-04-11T01:18:24.109Z,73.90
2023-04-11T01:19:27.958Z,79.65
2023-04-11T01:20:31.716Z,87.05
2023-04-11T01:21:36.177Z,72.50
2023-04-11T01:22:38.712Z,76.97
2023-04-11T01:23:43.570Z,73.80
2023-04-11T01:24:45.482Z,73.18
2023-04-11T01:25:48.393Z,59.35
2023-04-11T01:26:50.476Z,79.32
2023-04-11T01:27:53.339Z,54.90
2023-04-11T01:28:55.460Z,63.90
2023-04-11T01:29:58.552Z,69.28
2023-04-11T01:31:00.453Z,70.57
2023-04-11T01:32:03.477Z,79.22
2023-04-11T01:33:05.700Z,78.65
2023-04-11T01:34:12.776Z,80.78
2023-04-11T01:35:14.946Z,83.32
2023-04-11T01:36:17.861Z,87.10
2023-04-11T01:37:19.751Z,85.40
2023-04-11T01:38:22.647Z,84.80
2023-04-11T01:39:28.004Z,87.30
2023-04-11T01:40:32.597Z,85.60
2023-04-11T01:41:35.074Z,65.95
2023-04-11T01:42:38.906Z,56.63
2023-04-11T01:43:40.890Z,83.82
2023-04-11T01:44:44.116Z,87.43
2023-04-11T01:45:46.428Z,95.88
2023-04-11T01:46:49.377Z,59.42
2023-04-11T01:47:51.953Z,63.90
2023-04-11T01:48:56.284Z,65.47
2023-04-11T01:49:58.554Z,74.00
2023-04-11T01:51:01.427Z,78.25
2023-04-11T01:52:03.668Z,69.93
2023-04-11T01:53:06.535Z,75.82
2023-04-11T01:54:08.388Z,88.00
2023-04-11T01:55:15.939Z,81.88
2023-04-11T01:56:17.792Z,72.15
2023-04-11T01:57:22.500Z,85.20
2023-04-11T01:58:24.541Z,73.88
2023-04-11T01:59:27.356Z,67.68
2023-04-11T02:00:29.589Z,72.25
2023-04-11T02:01:34.155Z,85.88
2023-04-11T02:02:36.166Z,62.35
2023-04-11T02:03:40.878Z,53.75
2023-04-11T02:04:42.875Z,58.30
2023-04-11T02:05:47.698Z,72.05
2023-04-11T02:06:49.577Z,45.55
2023-04-11T02:07:55.596Z,53.65
2023-04-11T02:08:57.619Z,50.60
2023-04-11T02:10:01.277Z,64.82
2023-04-11T02:11:05.394Z,53.75
2023-04-11T02:12:08.504Z,66.47
2023-04-11T02:13:10.830Z,77.38
2023-04-11T02:14:15.301Z,61.20
2023-04-11T02:15:17.607Z,60.20
2023-04-11T02:16:20.895Z,67.68
2023-04-11T02:17:25.824Z,66.85
2023-04-11T02:18:28.738Z,78.75
2023-04-11T02:19:31.029Z,69.97
2023-04-11T02:20:34.029Z,76.63
2023-04-11T02:21:36.202Z,53.45
2023-04-11T02:22:39.035Z,66.85
2023-04-11T02:23:41.146Z,56.15
2023-04-11T02:24:44.002Z,62.53
2023-04-11T02:25:45.807Z,46.30
2023-04-11T02:26:50.408Z,46.67
2023-04-11T02:27:52.632Z,54.65
2023-04-11T02:28:55.701Z,51.17
2023-04-11T02:29:57.891Z,55.70
2023-04-11T02:31:00.872Z,65.75
2023-04-11T02:32:03.217Z,60.55
2023-04-11T02:33:08.968Z,65.50
2023-04-11T02:34:10.837Z,70.82
2023-04-11T02:35:13.702Z,56.72
2023-04-11T02:36:16.351Z,61.97
2023-04-11T02:37:19.671Z,75.50
2023-04-11T02:38:21.631Z,66.55
2023-04-11T02:39:24.696Z,61.47
2023-04-11T02:40:26.556Z,63.75
2023-04-11T02:41:29.351Z,47.10
2023-04-11T02:42:32.645Z,77.28
2023-04-11T02:43:35.647Z,82.40
2023-04-11T02:44:38.002Z,74.70
2023-04-11T02:45:41.274Z,70.13
2023-04-11T02:46:43.546Z,80.70
2023-04-11T02:47:48.682Z,98.80
2023-04-11T02:48:51.335Z,73.93
2023-04-11T02:49:54.180Z,58.78
2023-04-11T02:51:01.706Z,48.63
2023-04-11T02:52:05.254Z,75.45
2023-04-11T02:53:07.563Z,68.82
2023-04-11T02:54:12.693Z,55.33
2023-04-11T02:55:15.010Z,64.78
2023-04-11T02:56:19.001Z,67.25
2023-04-11T02:57:23.195Z,78.80
2023-04-11T02:58:29.234Z,67.45
2023-04-11T02:59:36.268Z,66.82
2023-04-11T03:00:39.219Z,67.53
2023-04-11T03:01:45.060Z,74.80
2023-04-11T03:02:49.131Z,67.25
2023-04-11T03:03:55.410Z,66.70
2023-04-11T03:05:03.993Z,67.03
2023-04-11T03:06:08.528Z,65.80
2023-04-11T03:07:12.969Z,75.97
2023-04-11T03:08:14.970Z,59.53
2023-04-11T03:09:25.014Z,60.88
2023-04-11T03:10:27.166Z,71.85
2023-04-11T03:11:30.964Z,79.55
2023-04-11T03:12:32.782Z,75.82
2023-04-11T03:13:40.725Z,66.03
2023-04-11T03:14:42.999Z,65.82
2023-04-11T03:15:45.890Z,82.60
2023-04-11T03:16:48.561Z,78.90
2023-04-11T03:17:51.498Z,56.63
2023-04-11T03:18:53.741Z,49.53
2023-04-11T03:19:57.076Z,43.17
2023-04-11T03:21:00.506Z,61.63
2023-04-11T03:22:03.700Z,56.25
2023-04-11T03:23:05.674Z,67.28
2023-04-11T03:24:09.935Z,73.72
2023-04-11T03:25:11.811Z,65.22
2023-04-11T03:26:15.373Z,44.72
2023-04-11T03:27:18.659Z,68.30
2023-04-11T03:28:24.264Z,67.22
2023-04-11T03:29:27.433Z,83.22
2023-04-11T03:30:53.297Z,51.03
2023-04-11T03:31:57.931Z,55.67
2023-04-11T03:33:01.357Z,65.32
2023-04-11T03:34:04.749Z,52.70
2023-04-11T03:35:08.184Z,53.22
2023-04-11T03:36:12.645Z,58.63
2023-04-11T03:37:14.800Z,77.38
2023-04-11T03:38:17.861Z,66.57
2023-04-11T03:39:21.717Z,73.25
2023-04-11T03:40:25.870Z,57.08
2023-04-11T03:41:47.498Z,50.83
2023-04-11T03:42:50.033Z,60.00
2023-04-11T03:43:57.179Z,63.25
2023-04-11T03:45:00.644Z,85.72
2023-04-11T03:46:03.502Z,56.85
2023-04-11T03:47:11.763Z,68.82
2023-04-11T03:48:20.016Z,68.63
2023-04-11T03:49:30.065Z,69.63
2023-04-11T03:50:33.297Z,54.42
2023-04-11T03:51:37.479Z,69.90
2023-04-11T03:52:42.885Z,72.43
2023-04-11T03:53:49.149Z,62.17
2023-04-11T03:55:14.040Z,51.55
2023-04-11T03:56:17.832Z,53.60
2023-04-11T03:57:19.724Z,59.08
2023-04-11T03:58:23.108Z,59.72
2023-04-11T03:59:26.480Z,79.13
2023-04-11T04:00:38.840Z,62.90
2023-04-11T04:01:43.772Z,66.03
2023-04-11T04:02:46.936Z,72.35
2023-04-11T04:03:50.792Z,52.08
2023-04-11T04:04:58.245Z,69.20
2023-04-11T04:06:04.451Z,62.63
2023-04-11T04:07:10.055Z,86.60
2023-04-11T04:08:16.252Z,78.22
2023-04-11T04:09:22.156Z,69.60
2023-04-11T04:10:28.353Z,52.17
2023-04-11T04:11:31.299Z,77.07
2023-04-11T04:12:34.460Z,76.93
2023-04-11T04:13:44.942Z,61.90
2023-04-11T04:14:50.262Z,59.58
2023-04-11T04:15:55.766Z,59.67
2023-04-11T04:17:01.096Z,71.82
2023-04-11T04:18:05.961Z,62.25
2023-04-11T04:19:17.079Z,61.40
2023-04-11T04:20:22.351Z,54.28
2023-04-11T04:21:32.630Z,71.28
2023-04-11T04:22:37.084Z,70.68
2023-04-11T04:23:39.403Z,71.28
2023-04-11T04:25:01.185Z,50.95
2023-04-11T04:26:06.635Z,58.88
2023-04-11T04:27:13.702Z,74.40
2023-04-11T04:28:22.421Z,69.68
2023-04-11T04:29:34.089Z,48.67
2023-04-11T04:30:38.931Z,98.15
2023-04-11T04:31:52.981Z,71.78
2023-04-11T04:33:02.766Z,52.25
2023-04-11T04:34:09.511Z,48.70
2023-04-11T04:35:16.561Z,54.60
2023-04-11T04:36:19.767Z,68.65
2023-04-11T04:37:25.570Z,60.70
2023-04-11T04:38:42.001Z,74.30
2023-04-11T04:39:45.190Z,59.30
2023-04-11T04:40:55.848Z,80.18
2023-04-11T04:41:59.305Z,71.47
2023-04-11T04:43:11.608Z,45.28
2023-04-11T04:44:23.366Z,57.47
2023-04-11T04:45:30.107Z,69.82
2023-04-11T04:46:36.800Z,63.63
2023-04-11T04:47:42.450Z,69.15
2023-04-11T04:48:44.774Z,80.55
2023-04-11T04:49:48.001Z,47.10
2023-04-11T04:50:51.245Z,52.70
2023-04-11T04:51:55.471Z,51.70
2023-04-11T04:52:58.216Z,55.17
2023-04-11T04:54:01.059Z,67.70
2023-04-11T04:55:04.059Z,68.90
2023-04-11T04:56:07.460Z,59.17
2023-04-11T04:57:14.535Z,59.60
2023-04-11T04:58:16.656Z,63.45
2023-04-11T04:59:19.502Z,54.75
2023-04-11T05:00:27.424Z,50.15
2023-04-11T05:01:35.315Z,42.45
2023-04-11T05:02:40.610Z,48.25
2023-04-11T05:03:51.029Z,48.63
2023-04-11T05:05:04.264Z,44.60
2023-04-11T05:06:09.450Z,58.05
2023-04-11T05:07:13.882Z,55.53
2023-04-11T05:08:18.586Z,46.60
2023-04-11T05:09:21.749Z,51.60
2023-04-11T05:10:27.038Z,46.03
2023-04-11T05:11:29.345Z,56.10
2023-04-11T05:12:32.536Z,44.38
2023-04-11T05:13:40.171Z,65.10
2023-04-11T05:14:43.551Z,44.13
2023-04-11T05:15:48.857Z,46.33
2023-04-11T05:16:52.218Z,65.25
2023-04-11T05:17:54.512Z,57.22
2023-04-11T05:18:59.194Z,49.72
2023-04-11T05:20:01.650Z,59.88
2023-04-11T05:21:06.669Z,97.20
2023-04-11T05:22:13.168Z,85.55
2023-04-11T05:23:21.585Z,81.07
2023-04-11T05:24:26.881Z,79.93
2023-04-11T05:25:31.997Z,65.82
2023-04-11T05:26:34.629Z,61.67
2023-04-11T05:27:37.876Z,49.05
2023-04-11T05:28:41.589Z,51.70
2023-04-11T05:29:49.016Z,56.67
2023-04-11T05:30:53.380Z,48.55
2023-04-11T05:31:56.657Z,36.20
2023-04-11T05:32:58.966Z,43.90
2023-04-11T05:34:03.827Z,31.30
2023-04-11T05:35:07.940Z,43.35
2023-04-11T05:36:28.458Z,33.85
2023-04-11T05:37:31.433Z,41.63
2023-04-11T05:38:34.685Z,36.35
2023-04-11T05:39:37.816Z,34.17
2023-04-11T05:40:40.058Z,36.05
2023-04-11T05:41:44.358Z,33.40
2023-04-11T05:42:46.604Z,36.40
2023-04-11T05:43:49.678Z,36.20
2023-04-11T05:44:52.065Z,32.17
2023-04-11T05:45:55.288Z,32.95
2023-04-11T05:46:58.642Z,32.65
2023-04-11T05:48:01.453Z,31.80
2023-04-11T05:49:06.266Z,28.55
2023-04-11T05:50:10.343Z,28.15
2023-04-11T05:51:14.003Z,27.83
2023-04-11T05:52:16.275Z,29.45
2023-04-11T05:53:19.732Z,28.27
2023-04-11T05:54:33.240Z,28.65
2023-04-11T05:55:35.504Z,29.60
2023-04-11T05:56:42.411Z,28.02
2023-04-11T05:57:46.718Z,28.45
2023-04-11T05:58:49.787Z,27.52
2023-04-11T05:59:53.092Z,27.25
2023-04-11T06:00:59.523Z,25.33
2023-04-11T06:02:01.997Z,25.02
2023-04-11T06:03:05.505Z,23.92
2023-04-11T06:04:10.339Z,23.95
2023-04-11T06:05:13.679Z,22.83
2023-04-11T06:06:16.970Z,25.75
2023-04-11T06:07:19.340Z,23.98
2023-04-11T06:08:23.037Z,24.05
2023-04-11T06:09:26.802Z,25.83
2023-04-11T06:10:30.604Z,24.55
2023-04-11T06:11:34.089Z,23.10
2023-04-11T06:12:36.590Z,23.38
2023-04-11T06:13:40.010Z,20.63
2023-04-11T06:14:42.359Z,20.27
2023-04-11T06:15:45.614Z,20.90
2023-04-11T06:16:47.956Z,18.85
2023-04-11T06:17:51.187Z,18.88
2023-04-11T06:18:53.207Z,17.58
2023-04-11T06:19:57.801Z,16.88
2023-04-11T06:21:00.584Z,17.98
2023-04-11T06:22:02.451Z,16.33
2023-04-11T06:23:06.228Z,18.30
2023-04-11T06:24:10.280Z,17.98
2023-04-11T06:25:13.070Z,15.65
2023-04-11T06:26:17.407Z,16.70
2023-04-11T06:27:19.467Z,15.65
2023-04-11T06:28:23.575Z,16.33
2023-04-11T06:29:26.176Z,16.27
2023-04-11T06:30:29.288Z,15.30
2023-04-11T06:31:31.256Z,15.05
2023-04-11T06:32:34.190Z,14.45
2023-04-11T06:33:37.002Z,13.73
2023-04-11T06:34:39.088Z,15.30
2023-04-11T06:35:43.694Z,14.88
2023-04-11T06:36:48.106Z,12.98
2023-04-11T06:37:50.946Z,12.57
2023-04-11T06:38:52.921Z,14.30
2023-04-11T06:39:55.814Z,12.70
2023-04-11T06:40:58.666Z,13.60
2023-04-11T06:42:00.771Z,12.30
2023-04-11T06:43:03.736Z,11.27
2023-04-11T06:44:06.383Z,11.15
2023-04-11T06:45:10.661Z,12.15
2023-04-11T06:46:13.661Z,11.52
2023-04-11T06:47:15.826Z,10.50
2023-04-11T06:48:20.379Z,12.20
2023-04-11T06:49:23.038Z,12.55
2023-04-11T06:50:26.140Z,12.88
2023-04-11T06:51:31.368Z,11.10
2023-04-11T06:52:34.302Z,12.30
2023-04-11T06:53:36.764Z,12.60
2023-04-11T06:54:40.693Z,12.55
2023-04-11T06:55:42.645Z,13.00
2023-04-11T06:56:45.746Z,13.00
2023-04-11T06:57:48.819Z,13.07
2023-04-11T06:58:50.665Z,12.90
2023-04-11T06:59:53.476Z,13.18
2023-04-11T07:00:55.743Z,11.88
2023-04-11T07:01:58.744Z,11.18
2023-04-11T07:03:01.992Z,12.43
2023-04-11T07:04:05.567Z,11.23
2023-04-11T07:05:10.289Z,11.45
2023-04-11T07:06:12.337Z,11.63
2023-04-11T07:07:16.974Z,10.02
2023-04-11T07:08:18.868Z,9.63
2023-04-11T07:09:21.830Z,9.25
2023-04-11T07:10:24.893Z,9.50
2023-04-11T07:11:32.852Z,9.77
2023-04-11T07:12:34.798Z,10.70
2023-04-11T07:13:38.216Z,9.35
2023-04-11T07:14:40.576Z,10.45
2023-04-11T07:15:43.472Z,9.52
2023-04-11T07:16:46.624Z,9.40
2023-04-11T07:17:50.941Z,10.25
2023-04-11T07:18:54.904Z,9.60
2023-04-11T07:19:57.922Z,9.75
2023-04-11T07:20:59.752Z,10.00
2023-04-11T07:22:03.478Z,9.70
2023-04-11T08:24:29.813Z,3.10
2023-04-11T08:25:33.264Z,3.20
2023-04-11T08:26:36.303Z,3.80
2023-04-11T08:27:38.359Z,3.33
2023-04-11T08:28:43.061Z,3.40
2023-04-11T08:32:16.841Z,3.25
2023-04-11T08:33:20.257Z,3.00
2023-04-11T08:34:24.860Z,5.30
2023-04-11T08:35:28.060Z,3.20
2023-04-11T08:37:14.581Z,3.65
2023-04-11T08:38:16.835Z,4.25
2023-04-11T08:42:24.402Z,3.78
2023-04-11T08:43:47.968Z,3.90
2023-04-11T08:44:55.945Z,3.33
2023-04-11T08:45:59.233Z,3.65
2023-04-11T08:47:01.109Z,6.55
2023-04-11T08:48:04.126Z,4.10
2023-04-11T08:49:07.096Z,3.40
2023-04-11T08:50:09.661Z,3.58
2023-04-11T08:51:14.749Z,3.08
2023-04-11T08:52:16.809Z,4.05
2023-04-11T08:53:21.529Z,5.03
2023-04-11T08:54:23.385Z,4.00
2023-04-11T08:55:26.314Z,3.58
2023-04-11T08:56:29.137Z,5.07
2023-04-11T08:57:34.902Z,3.35
2023-04-11T08:58:38.791Z,3.50
2023-04-11T08:59:48.959Z,3.58
2023-04-11T09:00:52.054Z,8.10
2023-04-11T09:02:07.008Z,3.80
2023-04-11T09:03:11.974Z,3.75
2023-04-11T09:04:13.963Z,3.70
2023-04-11T09:05:25.980Z,4.80
2023-04-11T09:06:31.034Z,3.25
2023-04-11T09:07:48.237Z,3.38
2023-04-11T09:08:51.900Z,3.60
2023-04-11T09:09:55.412Z,3.85
2023-04-11T09:11:02.428Z,4.00
2023-04-11T09:12:05.528Z,3.55
2023-04-11T09:13:21.364Z,4.13
2023-04-11T09:14:25.648Z,3.67
2023-04-11T09:15:30.090Z,3.00
2023-04-11T09:16:32.432Z,3.93
2023-04-11T09:17:41.882Z,3.20
2023-04-11T09:18:47.380Z,3.40
2023-04-11T09:19:49.613Z,3.50
2023-04-11T09:20:59.905Z,3.20
2023-04-11T09:22:05.164Z,3.73
2023-04-11T09:23:08.106Z,3.60
2023-04-11T09:24:17.061Z,4.17
2023-04-11T09:25:23.008Z,3.70
2023-04-11T09:26:31.730Z,5.57
2023-04-11T09:27:35.141Z,3.97
2023-04-11T09:28:44.929Z,3.73
2023-04-11T09:29:49.691Z,4.60
2023-04-11T09:30:55.622Z,3.20
2023-04-11T09:31:58.649Z,4.40
2023-04-11T09:33:22.805Z,3.10
2023-04-11T09:34:27.829Z,3.60
2023-04-11T09:35:33.165Z,6.57
2023-04-11T09:36:35.466Z,3.57
2023-04-11T09:37:49.274Z,3.70
2023-04-11T09:38:54.162Z,3.83
2023-04-11T09:39:59.130Z,4.67
2023-04-11T09:41:03.195Z,4.83
2023-04-11T09:42:24.063Z,3.50
2023-04-11T09:43:26.250Z,3.27
2023-04-11T09:44:39.803Z,3.83
2023-04-11T09:45:53.657Z,4.47
2023-04-11T09:47:32.937Z,2.53
2023-04-11T09:49:00.888Z,3.10
2023-04-11T09:49:59.991Z,3.70
2023-04-11T09:51:04.559Z,4.33
2023-04-11T09:52:07.731Z,3.37
2023-04-11T09:53:10.739Z,4.57
2023-04-11T09:54:17.121Z,3.17
2023-04-11T09:55:22.036Z,4.20
2023-04-11T09:56:26.618Z,3.37
2023-04-11T09:57:30.889Z,2.93
2023-04-11T09:58:34.717Z,3.37
2023-04-11T09:59:40.445Z,2.97
2023-04-11T10:00:44.974Z,3.20
2023-04-11T10:01:49.065Z,2.97
2023-04-11T10:02:54.041Z,3.23
2023-04-11T10:03:58.313Z,3.77
2023-04-11T10:05:04.312Z,3.40
2023-04-11T10:06:09.323Z,4.00
2023-04-11T10:07:16.947Z,3.80
2023-04-11T10:08:26.926Z,4.30
2023-04-11T10:09:31.380Z,3.30
2023-04-11T10:10:33.636Z,2.83
2023-04-11T10:11:36.884Z,3.53
2023-04-11T10:12:39.176Z,3.00
2023-04-11T10:13:43.300Z,3.07
2023-04-11T10:14:46.993Z,3.57
2023-04-11T10:16:09.042Z,3.43
2023-04-11T10:17:12.875Z,4.17
2023-04-11T10:18:15.751Z,3.33
2023-04-11T10:19:24.651Z,3.53
2023-04-11T10:20:46.910Z,3.20
2023-04-11T10:21:50.497Z,3.50
2023-04-11T10:23:00.781Z,3.73
2023-04-11T10:24:10.438Z,4.13
2023-04-11T10:25:15.728Z,3.83
2023-04-11T10:26:18.720Z,3.53
2023-04-11T10:27:48.889Z,3.17
2023-04-11T10:29:00.541Z,3.50
2023-04-11T10:30:04.304Z,3.40
2023-04-11T10:31:09.950Z,3.73
2023-04-11T10:32:24.867Z,3.83
2023-04-11T10:33:31.312Z,3.80
2023-04-11T10:34:35.517Z,4.67
2023-04-11T10:35:57.888Z,4.73
2023-04-11T10:37:05.223Z,7.00
2023-04-11T10:38:51.718Z,3.87
2023-04-11T10:40:09.841Z,3.67
2023-04-11T10:41:20.153Z,3.93
2023-04-11T10:42:29.938Z,8.83
2023-04-11T10:43:32.769Z,3.90
2023-04-11T10:44:35.804Z,4.43
2023-04-11T10:45:40.311Z,3.70
2023-04-11T10:46:48.147Z,4.07
2023-04-11T10:48:05.928Z,4.03
2023-04-11T10:49:08.752Z,4.10
2023-04-11T10:50:36.904Z,4.00
2023-04-11T10:51:39.895Z,4.23
2023-04-11T10:52:41.854Z,6.47
2023-04-11T10:53:47.300Z,4.27
2023-04-11T10:54:53.112Z,4.97
2023-04-11T10:55:55.028Z,3.37
2023-04-11T10:56:57.990Z,3.63
2023-04-11T10:58:08.262Z,3.70
2023-04-11T10:59:53.217Z,4.50
2023-04-11T11:01:26.674Z,3.63
2023-04-11T11:02:41.539Z,3.43
2023-04-11T11:03:59.743Z,3.73
2023-04-11T11:05:04.022Z,4.30
2023-04-11T11:06:08.604Z,5.47
2023-04-11T11:07:15.609Z,4.37
2023-04-11T11:08:27.152Z,3.97
2023-04-11T11:09:29.925Z,3.90
2023-04-11T11:10:36.418Z,3.70
2023-04-11T11:11:39.292Z,3.47
2023-04-11T11:12:52.688Z,5.93
2023-04-11T11:13:56.857Z,4.43
2023-04-11T11:14:59.220Z,3.27
2023-04-11T11:16:02.274Z,3.40
2023-04-11T11:17:06.430Z,3.57
2023-04-11T11:18:10.539Z,4.10
2023-04-11T11:19:16.753Z,3.90
2023-04-11T11:20:20.140Z,3.73
2023-04-11T11:21:27.627Z,4.00
2023-04-11T11:22:30.096Z,3.70
2023-04-11T11:23:34.878Z,3.67
2023-04-11T11:24:36.805Z,3.67
2023-04-11T11:25:39.554Z,3.43
2023-04-11T11:26:44.435Z,3.63
2023-04-11T11:27:46.251Z,3.77
2023-04-11T11:28:49.405Z,3.30
2023-04-11T11:29:51.992Z,3.40
2023-04-11T11:30:55.855Z,3.43
2023-04-11T11:31:59.719Z,4.03
2023-04-11T11:33:17.830Z,3.43
2023-04-11T11:34:28.548Z,3.80
2023-04-11T11:35:30.928Z,3.73
2023-04-11T11:36:35.562Z,3.70
2023-04-11T11:37:37.552Z,3.27
2023-04-11T11:38:40.398Z,3.60
2023-04-11T11:39:43.630Z,4.17
2023-04-11T11:40:47.149Z,3.93
2023-04-11T11:41:50.304Z,3.80
2023-04-11T11:42:52.337Z,3.67
2023-04-11T11:43:55.385Z,3.70
2023-04-11T11:45:15.572Z,3.30
2023-04-11T11:46:18.482Z,3.50
2023-04-11T11:47:22.663Z,3.77
2023-04-11T11:48:27.304Z,3.50
2023-04-11T11:49:43.888Z,4.87
2023-04-11T11:50:46.836Z,3.60
2023-04-11T11:51:49.681Z,3.47
2023-04-11T11:52:52.640Z,3.67
2023-04-11T11:54:06.080Z,3.40
2023-04-11T11:55:13.430Z,3.50
2023-04-11T11:56:17.029Z,4.00
2023-04-11T11:57:22.852Z,3.40
2023-04-11T11:58:26.202Z,3.60
2023-04-11T11:59:29.897Z,3.73
2023-04-11T12:00:37.601Z,3.63
2023-04-11T12:01:42.085Z,4.50
2023-04-11T12:02:49.015Z,3.60
2023-04-11T12:03:53.718Z,4.47
2023-04-11T12:04:58.141Z,3.93
2023-04-11T12:06:01.341Z,3.97
2023-04-11T12:07:08.648Z,3.60
2023-04-11T12:08:11.574Z,3.97
2023-04-11T12:09:13.728Z,4.00
2023-04-11T12:10:18.694Z,3.87
2023-04-11T12:11:22.505Z,3.93
2023-04-11T12:12:24.840Z,4.97
2023-04-11T12:13:28.127Z,4.27
2023-04-11T12:14:31.210Z,4.10
2023-04-11T12:15:39.727Z,3.40
2023-04-11T12:16:42.858Z,3.63
2023-04-11T12:17:50.084Z,3.80
2023-04-11T12:18:55.399Z,3.80
2023-04-11T12:19:58.026Z,4.43
2023-04-11T12:21:04.961Z,5.30
2023-04-11T12:22:08.626Z,3.93
2023-04-11T12:23:11.924Z,7.90
2023-04-11T12:24:15.882Z,4.00
2023-04-11T12:25:18.641Z,4.30
2023-04-11T12:26:24.052Z,4.67
2023-04-11T12:27:26.177Z,4.50
2023-04-11T12:28:38.250Z,4.07
2023-04-11T12:29:40.699Z,4.40
2023-04-11T12:30:44.454Z,5.10
2023-04-11T12:31:49.805Z,5.60
2023-04-11T12:32:52.078Z,5.17
2023-04-11T12:33:56.851Z,4.87
2023-04-11T12:34:59.584Z,4.43
2023-04-11T12:36:07.607Z,7.07
2023-04-11T12:37:10.060Z,4.13
2023-04-11T12:38:16.576Z,4.27
2023-04-11T12:39:20.439Z,4.37
2023-04-11T12:40:23.471Z,4.30
2023-04-11T12:42:34.779Z,5.43
2023-04-11T12:43:40.402Z,5.53
2023-04-11T12:44:43.376Z,6.00
2023-04-11T12:45:46.516Z,5.00
2023-04-11T12:46:48.518Z,5.87
2023-04-11T12:47:52.045Z,4.80
2023-04-11T12:48:56.614Z,7.10
2023-04-11T12:49:59.364Z,5.90
2023-04-11T12:51:02.928Z,5.63
2023-04-11T12:52:05.137Z,4.33
2023-04-11T12:53:08.146Z,8.53
2023-04-11T12:54:10.337Z,4.57
2023-04-11T12:55:14.103Z,6.60
2023-04-11T12:56:16.061Z,5.10
2023-04-11T12:58:45.058Z,4.63
2023-04-11T12:59:50.308Z,4.50
2023-04-11T13:00:53.814Z,4.40
2023-04-11T13:01:57.220Z,4.83
2023-04-11T13:03:01.186Z,4.90
2023-04-11T13:04:05.924Z,4.40
2023-04-11T13:05:10.684Z,5.77
2023-04-11T13:06:14.130Z,4.30
2023-04-11T13:07:17.730Z,4.23
2023-04-11T13:08:21.312Z,4.47
2023-04-11T13:09:24.028Z,17.73
2023-04-11T13:10:27.672Z,4.70
2023-04-11T13:11:30.040Z,4.13
2023-04-11T13:12:34.352Z,3.90
2023-04-11T13:13:38.156Z,5.10
2023-04-11T13:14:41.768Z,4.10
2023-04-11T13:15:46.996Z,4.00
2023-04-11T13:16:58.865Z,3.93
2023-04-11T13:18:02.291Z,4.10
2023-04-11T13:19:07.792Z,4.00
2023-04-11T13:20:13.015Z,4.17
2023-04-11T13:21:16.842Z,4.60
2023-04-11T13:22:18.897Z,4.23
2023-04-11T13:23:22.569Z,4.10
2023-04-11T13:24:26.656Z,4.83
2023-04-11T13:25:29.989Z,4.00
2023-04-11T13:26:33.232Z,4.07
2023-04-11T13:27:37.502Z,3.93
2023-04-11T13:28:40.433Z,4.00
2023-04-11T13:29:43.862Z,4.37
2023-04-11T13:30:47.044Z,4.50
2023-04-11T13:31:49.781Z,4.70
2023-04-11T13:32:53.523Z,6.37
2023-04-11T13:33:56.562Z,4.47
2023-04-11T13:35:00.873Z,4.80
2023-04-11T13:36:05.045Z,4.30
2023-04-11T13:37:11.393Z,3.97
2023-04-11T13:38:14.117Z,4.13
2023-04-11T13:39:21.247Z,4.13
2023-04-11T13:40:24.185Z,4.50
2023-04-11T13:41:27.622Z,4.37
2023-04-11T13:42:31.588Z,4.20
2023-04-11T13:43:34.743Z,4.07
2023-04-11T13:44:38.629Z,4.23
2023-04-11T13:45:41.272Z,4.17
2023-04-11T13:46:44.595Z,4.43
2023-04-11T13:47:46.934Z,3.93
2023-04-11T13:49:21.507Z,4.60
2023-04-11T13:50:29.076Z,4.50
2023-04-11T13:54:09.150Z,4.63
2023-04-11T13:57:18.306Z,4.50
2023-04-11T13:58:43.107Z,4.23
2023-04-11T14:00:13.173Z,5.27
2023-04-11T14:01:15.625Z,5.40
2023-04-11T14:02:19.451Z,7.00
2023-04-11T14:03:21.898Z,5.10
2023-04-11T14:04:25.357Z,4.50
2023-04-11T14:05:32.632Z,4.83
2023-04-11T14:06:37.582Z,4.70
2023-04-11T14:07:41.204Z,5.97
2023-04-11T14:08:45.208Z,5.67
2023-04-11T14:09:50.038Z,5.93
2023-04-11T14:10:55.141Z,5.37
2023-04-11T14:12:20.247Z,4.70
2023-04-11T14:13:27.756Z,4.93
2023-04-11T14:14:31.836Z,5.13
2023-04-11T14:15:34.377Z,5.30
2023-04-11T14:16:38.089Z,5.03
2023-04-11T14:17:40.523Z,4.93
2023-04-11T14:18:47.335Z,5.00
2023-04-11T14:19:49.548Z,5.50
2023-04-11T14:20:56.740Z,5.20
2023-04-11T14:22:00.136Z,5.83
2023-04-11T14:23:10.385Z,6.07
2023-04-11T14:24:13.977Z,5.23
2023-04-11T14:25:16.687Z,6.20
2023-04-11T14:26:21.047Z,5.73
2023-04-11T14:27:26.743Z,6.17
2023-04-11T14:28:30.537Z,7.43
2023-04-11T14:29:34.597Z,6.70
2023-04-11T14:30:37.008Z,7.97
2023-04-11T14:31:42.764Z,6.45
2023-04-11T14:34:25.809Z,5.22
2023-04-11T14:35:55.852Z,5.45
2023-04-11T14:37:47.292Z,5.05
2023-04-11T14:39:00.972Z,4.53
2023-04-11T14:40:08.038Z,4.90
2023-04-11T14:41:52.562Z,5.20
2023-04-11T14:43:06.681Z,4.85
2023-04-11T14:46:27.422Z,5.07
2023-04-11T14:47:31.525Z,5.68
2023-04-11T14:48:35.539Z,5.38
2023-04-11T14:49:45.413Z,5.28
2023-04-11T14:50:55.536Z,5.97
2023-04-11T14:52:04.022Z,6.13
2023-04-11T14:53:12.712Z,5.72
2023-04-11T14:54:15.992Z,7.20
2023-04-11T14:55:19.390Z,6.35
2023-04-11T14:56:22.423Z,6.28
2023-04-11T14:57:25.964Z,12.32
2023-04-11T14:58:29.055Z,8.65
2023-04-11T14:59:32.654Z,8.13
2023-04-11T15:00:35.939Z,8.57
2023-04-11T15:01:41.877Z,9.23
2023-04-11T15:02:49.906Z,7.88
2023-04-11T15:03:55.827Z,7.72
2023-04-11T15:04:58.311Z,6.97
2023-04-11T15:06:08.064Z,7.47
2023-04-11T15:07:10.147Z,6.78
2023-04-11T15:08:18.241Z,6.55
2023-04-11T15:09:22.844Z,6.55
2023-04-11T15:10:26.769Z,6.85
2023-04-11T15:11:36.458Z,7.43
2023-04-11T15:12:43.187Z,7.07
2023-04-11T15:13:59.755Z,6.65
2023-04-11T15:15:12.492Z,6.35
2023-04-11T15:16:20.688Z,6.40
2023-04-11T15:17:23.199Z,6.30
2023-04-11T15:18:28.022Z,5.45
2023-04-11T15:19:36.469Z,6.60
2023-04-11T15:20:42.514Z,5.55
2023-04-11T15:23:11.629Z,5.88
2023-04-11T15:24:17.060Z,5.93
2023-04-11T15:25:21.229Z,5.50
2023-04-11T15:26:28.669Z,5.10
2023-04-11T15:27:31.009Z,4.70
2023-04-11T15:28:37.931Z,6.13
2023-04-11T15:29:40.619Z,6.22
2023-04-11T15:30:48.744Z,5.47
2023-04-11T15:31:55.196Z,5.88
2023-04-11T15:32:58.332Z,6.60
2023-04-11T15:34:03.993Z,5.35